Terminal Aerodrome Forecast
Issued by NWS Pittsburgh, PA

Current Version | Previous Version | Text Only | Print | Product List | Glossary Off
Versions: 1 2 3 4 5 6 7 8 9 10 11 12 13 14 15 16 17 18 19 20 21 22 23 24 25 26 27 28 29 30

000
FTUS41 KPBZ 190900 AAB
TAFPIT
TAF AMD
KPIT 190904Z 1909/2012 36003KT P6SM BKN070
      TEMPO 1910/1912 4SM BR
     FM191400 VRB04KT P6SM SCT250
     FM200600 17006KT P6SM VCSH BKN040=

USA.gov is the U.S. government's official web portal to all federal, state and local government web resources and services.